createdAt,value
2024-05-09T00:00:46.059Z,101380.97
2024-05-09T00:03:13.800Z,101387.28
2024-05-09T00:05:42.550Z,101384.78
2024-05-09T00:08:10.896Z,101383.41
2024-05-09T00:10:40.070Z,101388.25
2024-05-09T00:13:09.609Z,101381.50
2024-05-09T00:15:37.616Z,101378.16
2024-05-09T00:18:06.823Z,101366.97
2024-05-09T00:20:39.032Z,101382.09
2024-05-09T00:23:11.085Z,101379.50
2024-05-09T00:25:39.428Z,101373.56
2024-05-09T00:28:06.923Z,101378.13
2024-05-09T00:30:36.428Z,101373.81
2024-05-09T00:33:06.677Z,101375.84
2024-05-09T00:35:35.729Z,101379.56
2024-05-09T00:38:03.984Z,101369.91
2024-05-09T00:40:43.202Z,101382.19
2024-05-09T00:43:12.969Z,101385.91
2024-05-09T00:45:41.359Z,101375.31
2024-05-09T00:48:11.060Z,101379.91
2024-05-09T00:50:42.805Z,101378.34
2024-05-09T00:53:15.539Z,101380.25
2024-05-09T00:55:43.763Z,101367.84
2024-05-09T00:58:14.463Z,101375.72
2024-05-09T01:00:42.072Z,101370.31
2024-05-09T01:03:12.129Z,101374.56
2024-05-09T01:05:41.597Z,101371.94
2024-05-09T01:08:09.834Z,101370.00
2024-05-09T01:10:38.329Z,101368.09
2024-05-09T01:13:07.166Z,101374.28
2024-05-09T01:15:35.854Z,101358.38
2024-05-09T01:18:10.558Z,101359.19
2024-05-09T01:20:42.452Z,101367.22
2024-05-09T01:23:14.165Z,101367.97
2024-05-09T01:25:43.702Z,101366.28
2024-05-09T01:28:11.248Z,101364.53
2024-05-09T01:30:38.875Z,101367.31
2024-05-09T01:33:08.788Z,101368.50
2024-05-09T01:35:38.804Z,101352.88
2024-05-09T01:38:07.328Z,101363.63
2024-05-09T01:40:38.702Z,101349.69
2024-05-09T01:43:09.550Z,101364.34
2024-05-09T01:45:38.526Z,101362.13
2024-05-09T01:48:06.835Z,101366.75
2024-05-09T01:50:39.439Z,101370.56
2024-05-09T01:53:15.086Z,101368.97
2024-05-09T01:55:43.362Z,101362.03
2024-05-09T01:58:10.870Z,101359.50
2024-05-09T02:00:42.208Z,101352.47
2024-05-09T02:03:15.861Z,101353.50
2024-05-09T02:05:47.554Z,101348.09
2024-05-09T02:08:18.377Z,101342.66
2024-05-09T02:10:47.950Z,101344.47
2024-05-09T02:13:16.621Z,101355.91
2024-05-09T02:15:44.344Z,101362.13
2024-05-09T02:18:12.020Z,101342.66
2024-05-09T02:20:44.033Z,101353.38
2024-05-09T02:23:11.940Z,101357.13
2024-05-09T02:25:39.655Z,101351.06
2024-05-09T02:28:06.947Z,101356.34
2024-05-09T02:30:39.888Z,101350.19
2024-05-09T02:33:13.556Z,101345.00
2024-05-09T02:35:43.350Z,101347.78
2024-05-09T02:38:11.521Z,101352.31
2024-05-09T02:40:40.083Z,101344.50
2024-05-09T02:43:10.073Z,101354.31
2024-05-09T02:45:39.453Z,101351.78
2024-05-09T02:48:10.060Z,101349.16
2024-05-09T02:50:39.641Z,101348.47
2024-05-09T02:53:08.903Z,101345.94
2024-05-09T02:55:37.638Z,101348.59
2024-05-09T02:58:06.921Z,101355.69
2024-05-09T03:00:38.985Z,101352.19
2024-05-09T03:03:11.003Z,101362.88
2024-05-09T03:05:40.810Z,101352.44
2024-05-09T03:08:08.236Z,101364.00
2024-05-09T03:10:37.861Z,101361.47
2024-05-09T03:13:13.802Z,101362.44
2024-05-09T03:15:42.620Z,101367.09
2024-05-09T03:18:10.972Z,101366.31
2024-05-09T03:20:39.037Z,101363.78
2024-05-09T03:23:08.914Z,101361.19
2024-05-09T03:25:37.864Z,101366.75
2024-05-09T03:28:05.640Z,101370.28
2024-05-09T03:30:40.131Z,101372.97
2024-05-09T03:33:22.909Z,101364.16
2024-05-09T03:35:50.388Z,101365.22
2024-05-09T03:38:17.922Z,101378.31
2024-05-09T03:40:49.889Z,101372.09
2024-05-09T03:43:19.166Z,101362.50
2024-05-09T03:45:49.845Z,101364.34
2024-05-09T03:48:17.592Z,101361.81
2024-05-09T03:50:45.111Z,101362.75
2024-05-09T03:53:14.179Z,101361.06
2024-05-09T03:55:41.837Z,101360.34
2024-05-09T03:58:09.491Z,101367.38
2024-05-09T04:00:39.419Z,101368.28
2024-05-09T04:03:11.064Z,101365.84
2024-05-09T04:05:42.410Z,101358.84
2024-05-09T04:08:11.174Z,101362.59
2024-05-09T04:10:38.769Z,101369.63
2024-05-09T04:13:06.109Z,101362.56
2024-05-09T04:15:33.573Z,101366.16
2024-05-09T04:18:01.967Z,101363.53
2024-05-09T04:20:37.558Z,101379.63
2024-05-09T04:23:11.140Z,101377.84
2024-05-09T04:25:41.721Z,101380.63
2024-05-09T04:28:09.031Z,101377.09
2024-05-09T04:30:39.622Z,101387.69
2024-05-09T04:33:14.002Z,101380.78
2024-05-09T04:35:43.295Z,101379.00
2024-05-09T04:38:11.519Z,101372.84
2024-05-09T04:40:38.836Z,101385.09
2024-05-09T04:43:07.196Z,101379.81
2024-05-09T04:45:35.286Z,101387.81
2024-05-09T04:48:03.167Z,101394.88
2024-05-09T04:50:36.771Z,101383.41
2024-05-09T04:53:09.253Z,101390.53
2024-05-09T04:55:38.061Z,101390.50
2024-05-09T04:58:10.464Z,101394.84
2024-05-09T05:00:40.302Z,101404.59
2024-05-09T05:03:13.280Z,101405.66
2024-05-09T05:05:44.009Z,101389.63
2024-05-09T05:08:17.699Z,101407.81
2024-05-09T05:10:46.801Z,101400.56
2024-05-09T05:13:22.294Z,101393.34
2024-05-09T05:15:58.376Z,101402.88
2024-05-09T05:18:29.227Z,101397.53
2024-05-09T05:20:57.325Z,101401.78
2024-05-09T05:23:25.403Z,101403.38
2024-05-09T05:25:54.840Z,101407.59
2024-05-09T05:28:22.836Z,101396.09
2024-05-09T05:30:50.318Z,101401.19
2024-05-09T05:33:19.131Z,101408.94
2024-05-09T05:35:46.908Z,101408.00
2024-05-09T05:38:14.349Z,101415.88
2024-05-09T05:40:41.854Z,101417.53
2024-05-09T05:43:17.416Z,101426.19
2024-05-09T05:45:45.369Z,101419.00
2024-05-09T05:48:16.213Z,101419.72
2024-05-09T05:50:44.837Z,101431.31
2024-05-09T05:53:12.287Z,101429.31
2024-05-09T05:55:40.916Z,101422.06
2024-05-09T05:58:12.333Z,101438.53
2024-05-09T06:00:41.945Z,101419.91
2024-05-09T06:03:11.561Z,101431.03
2024-05-09T06:05:46.579Z,101419.25
2024-05-09T06:08:14.436Z,101422.56
2024-05-09T06:10:42.478Z,101427.59
2024-05-09T06:13:11.502Z,101413.13
2024-05-09T06:15:40.287Z,101417.28
2024-05-09T06:18:09.302Z,101431.16
2024-05-09T06:20:39.504Z,101422.84
2024-05-09T06:23:07.861Z,101422.47
2024-05-09T06:25:36.298Z,101423.88
2024-05-09T06:28:04.571Z,101434.81
2024-05-09T06:30:40.213Z,101429.97
2024-05-09T06:33:12.270Z,101421.63
2024-05-09T06:35:41.548Z,101422.06
2024-05-09T06:38:09.599Z,101434.09
2024-05-09T06:40:41.273Z,101424.00
2024-05-09T06:43:15.374Z,101424.50
2024-05-09T06:45:44.248Z,101428.63
2024-05-09T06:48:11.917Z,101419.31
2024-05-09T06:50:40.387Z,101407.53
2024-05-09T06:53:08.593Z,101421.34
2024-05-09T06:55:36.977Z,101422.91
2024-05-09T06:58:09.039Z,101416.22
2024-05-09T07:00:39.762Z,101432.03
2024-05-09T07:03:11.007Z,101427.13
2024-05-09T07:05:39.732Z,101421.44
2024-05-09T07:08:07.916Z,101411.28
2024-05-09T07:10:36.568Z,101422.19
2024-05-09T07:13:09.984Z,101430.59
2024-05-09T07:15:37.561Z,101418.75
2024-05-09T07:18:13.389Z,101419.16
2024-05-09T07:20:41.524Z,101419.22
2024-05-09T07:23:16.086Z,101418.75
2024-05-09T07:25:43.774Z,101428.34
2024-05-09T07:28:17.027Z,101414.53
2024-05-09T07:30:44.997Z,101421.41
2024-05-09T07:33:23.491Z,101415.53
2024-05-09T07:35:52.204Z,101408.25
2024-05-09T07:38:19.682Z,101404.41
2024-05-09T07:40:47.048Z,101406.44
2024-05-09T07:43:15.274Z,101411.63
2024-05-09T07:45:51.371Z,101402.22
2024-05-09T07:52:37.825Z,101400.75
2024-05-09T07:53:46.942Z,101398.47
2024-05-09T07:56:18.327Z,101407.19
2024-05-09T07:58:46.476Z,101403.41
2024-05-09T08:01:13.850Z,101399.41
2024-05-09T08:03:41.209Z,101392.97
2024-05-09T08:06:08.640Z,101390.81
2024-05-09T08:08:35.925Z,101384.22
2024-05-09T08:11:03.487Z,101384.78
2024-05-09T08:13:31.538Z,101389.00
2024-05-09T08:15:58.960Z,101380.69
2024-05-09T08:18:26.299Z,101387.41
2024-05-09T08:20:53.579Z,101382.56
2024-05-09T08:23:20.760Z,101379.78
2024-05-09T08:25:48.111Z,101381.19
2024-05-09T08:28:16.394Z,101370.09
2024-05-09T08:30:44.295Z,101383.09
2024-05-09T08:33:11.670Z,101380.06
2024-05-09T08:35:38.867Z,101372.50
2024-05-09T08:38:07.500Z,101374.97
2024-05-09T08:40:37.495Z,101380.75
2024-05-09T08:43:11.626Z,101368.03
2024-05-09T08:45:45.368Z,101379.19
2024-05-09T08:48:15.750Z,101369.94
2024-05-09T08:50:45.172Z,101373.38
2024-05-09T08:53:14.859Z,101369.38
2024-05-09T08:55:44.065Z,101370.69
2024-05-09T08:58:19.538Z,101366.78
2024-05-09T09:00:47.940Z,101372.63
2024-05-09T09:03:19.223Z,101356.25
2024-05-09T09:06:06.529Z,101369.22
2024-05-09T09:08:33.797Z,101353.72
2024-05-09T09:11:01.264Z,101358.69
2024-05-09T09:13:28.879Z,101354.50
2024-05-09T09:15:59.304Z,101353.38
2024-05-09T09:18:28.277Z,101342.00
2024-05-09T09:20:56.592Z,101359.81
2024-05-09T09:23:23.811Z,101362.16
2024-05-09T09:25:52.031Z,101346.47
2024-05-09T09:28:22.799Z,101357.66
2024-05-09T09:30:50.116Z,101355.84
2024-05-09T09:33:19.012Z,101349.97
2024-05-09T09:35:46.481Z,101349.97
2024-05-09T09:38:20.681Z,101338.88
2024-05-09T09:40:49.827Z,101343.50
2024-05-09T09:43:22.502Z,101340.00
2024-05-09T09:45:53.434Z,101329.41
2024-05-09T09:48:23.010Z,101331.22
2024-05-09T09:50:52.913Z,101342.66
2024-05-09T09:53:23.098Z,101341.28
2024-05-09T09:55:52.303Z,101333.19
2024-05-09T09:58:20.111Z,101328.56
2024-05-09T10:00:47.543Z,101319.31
2024-05-09T10:03:15.023Z,101321.13
2024-05-09T10:05:46.298Z,101328.84
2024-05-09T10:08:17.764Z,101330.31
2024-05-09T10:10:48.769Z,101324.81
2024-05-09T10:13:16.480Z,101314.75
2024-05-09T10:15:54.431Z,101323.28
2024-05-09T10:18:29.196Z,101316.03
2024-05-09T10:20:59.589Z,101298.06
2024-05-09T10:23:34.532Z,101316.31
2024-05-09T10:26:06.235Z,101311.78
2024-05-09T10:28:37.096Z,101312.44
2024-05-09T10:31:13.395Z,101307.41
2024-05-09T10:33:51.008Z,101301.91
2024-05-09T10:36:21.250Z,101302.38
2024-05-09T10:38:55.297Z,101300.44
2024-05-09T10:41:23.635Z,101304.28
2024-05-09T10:43:52.001Z,101296.84
2024-05-09T10:46:20.014Z,101290.53
2024-05-09T10:48:49.864Z,101292.09
2024-05-09T10:51:21.832Z,101290.94
2024-05-09T10:53:49.114Z,101282.72
2024-05-09T10:56:17.219Z,101277.28
2024-05-09T10:58:44.793Z,101285.00
2024-05-09T11:01:13.741Z,101286.66
2024-05-09T11:03:41.820Z,101281.34
2024-05-09T11:06:10.818Z,101274.44
2024-05-09T11:08:39.220Z,101268.16
2024-05-09T11:11:08.263Z,101273.38
2024-05-09T11:13:40.333Z,101275.66
2024-05-09T11:16:19.709Z,101265.25
2024-05-09T11:18:56.163Z,101284.88
2024-05-09T11:21:24.627Z,101277.75
2024-05-09T11:23:52.305Z,101265.94
2024-05-09T11:26:21.594Z,101262.91
2024-05-09T11:28:50.392Z,101260.09
2024-05-09T11:31:18.050Z,101267.03
2024-05-09T11:33:45.825Z,101261.53
2024-05-09T11:36:14.149Z,101247.00
2024-05-09T11:38:41.432Z,101256.75
2024-05-09T11:41:08.844Z,101247.56
2024-05-09T11:43:36.044Z,101249.16
2024-05-09T11:46:04.007Z,101254.69
2024-05-09T11:48:32.267Z,101245.41
2024-05-09T11:50:59.846Z,101238.25
2024-05-09T11:53:26.973Z,101237.16
2024-05-09T11:55:54.261Z,101232.31
2024-05-09T11:58:22.877Z,101235.03
2024-05-09T12:00:50.551Z,101226.13
2024-05-09T12:03:18.074Z,101222.34
2024-05-09T12:05:45.706Z,101228.22
2024-05-09T12:08:14.446Z,101216.41
2024-05-09T12:10:42.298Z,101212.59
2024-05-09T12:13:09.896Z,101219.66
2024-05-09T12:15:38.388Z,101212.16
2024-05-09T12:18:07.764Z,101212.06
2024-05-09T12:20:38.799Z,101217.47
2024-05-09T12:23:10.177Z,101211.59
2024-05-09T12:25:39.889Z,101204.47
2024-05-09T12:28:08.841Z,101203.28
2024-05-09T12:30:40.341Z,101205.13
2024-05-09T12:33:12.696Z,101209.34
2024-05-09T12:35:44.246Z,101209.34
2024-05-09T12:38:14.899Z,101198.59
2024-05-09T12:40:42.938Z,101193.94
2024-05-09T12:43:11.375Z,101181.66
2024-05-09T12:45:40.057Z,101195.69
2024-05-09T12:48:12.282Z,101191.78
2024-05-09T12:50:40.736Z,101185.38
2024-05-09T12:53:08.258Z,101181.66
2024-05-09T12:55:44.506Z,101179.81
2024-05-09T12:58:22.206Z,101180.69
2024-05-09T13:00:51.985Z,101170.94
2024-05-09T13:03:19.928Z,101166.13
2024-05-09T13:05:48.469Z,101171.47
2024-05-09T13:08:16.085Z,101177.63
2024-05-09T13:10:43.665Z,101173.94
2024-05-09T13:13:11.282Z,101170.50
2024-05-09T13:15:39.233Z,101165.06
2024-05-09T13:18:07.190Z,101169.16
2024-05-09T13:20:36.930Z,101157.47
2024-05-09T13:23:07.038Z,101164.53
2024-05-09T13:25:35.508Z,101152.25
2024-05-09T13:28:04.611Z,101153.69
2024-05-09T13:30:38.995Z,101152.44
2024-05-09T13:33:13.690Z,101150.38
2024-05-09T13:35:48.842Z,101138.47
2024-05-09T13:38:22.043Z,101150.16
2024-05-09T13:40:50.510Z,101135.75
2024-05-09T13:43:19.119Z,101143.75
2024-05-09T13:45:47.342Z,101129.00
2024-05-09T13:48:14.842Z,101135.28
2024-05-09T13:50:42.422Z,101127.81
2024-05-09T13:53:09.625Z,101123.13
2024-05-09T13:55:40.772Z,101117.50
2024-05-09T13:58:09.665Z,101112.06
2024-05-09T14:00:46.663Z,101115.19
2024-05-09T14:03:19.204Z,101114.44
2024-05-09T14:05:50.558Z,101121.47
2024-05-09T14:08:20.107Z,101102.09
2024-05-09T14:10:48.550Z,101112.59
2024-05-09T14:13:16.172Z,101094.81
2024-05-09T14:15:43.934Z,101101.59
2024-05-09T14:18:13.586Z,101098.91
2024-05-09T14:20:42.915Z,101099.03
2024-05-09T14:23:10.795Z,101102.34
2024-05-09T14:25:42.295Z,101095.97
2024-05-09T14:28:12.548Z,101083.13
2024-05-09T14:30:40.519Z,101086.50
2024-05-09T14:33:08.925Z,101085.72
2024-05-09T14:35:38.503Z,101086.38
2024-05-09T14:38:07.915Z,101075.50
2024-05-09T14:40:41.949Z,101070.72
2024-05-09T14:43:12.693Z,101061.72
2024-05-09T14:45:40.851Z,101065.03
2024-05-09T14:48:08.972Z,101067.75
2024-05-09T14:50:39.138Z,101065.16
2024-05-09T14:53:10.276Z,101055.53
2024-05-09T14:55:42.165Z,101056.16
2024-05-09T14:58:11.429Z,101064.19
2024-05-09T15:00:46.101Z,101054.19
2024-05-09T15:03:18.670Z,101065.81
2024-05-09T15:05:47.863Z,101053.09
2024-05-09T15:08:18.623Z,101045.94
2024-05-09T15:10:46.818Z,101048.66
2024-05-09T15:13:16.493Z,101037.69
2024-05-09T15:15:44.682Z,101040.03
2024-05-09T15:18:13.381Z,101031.91
2024-05-09T15:20:41.432Z,101032.97
2024-05-09T15:23:08.693Z,101013.88
2024-05-09T15:25:36.864Z,101024.84
2024-05-09T15:28:08.047Z,101030.19
2024-05-09T15:30:36.581Z,101032.03
2024-05-09T15:33:05.022Z,101013.75
2024-05-09T15:35:33.818Z,101005.47
2024-05-09T15:38:03.034Z,101008.56
2024-05-09T15:40:37.829Z,101020.31
2024-05-09T15:43:10.123Z,101008.81
2024-05-09T15:45:39.972Z,101020.03
2024-05-09T15:48:09.358Z,101014.63
2024-05-09T15:50:40.829Z,101016.25
2024-05-09T15:53:11.819Z,101003.63
2024-05-09T15:55:40.016Z,101004.28
2024-05-09T15:58:07.958Z,101017.72
2024-05-09T16:00:39.795Z,101016.00
2024-05-09T16:03:11.292Z,101000.81
2024-05-09T16:05:39.482Z,101002.69
2024-05-09T16:08:07.826Z,101005.03
2024-05-09T16:10:36.172Z,100993.53
2024-05-09T16:13:04.348Z,101007.63
2024-05-09T16:15:32.178Z,101009.34
2024-05-09T16:18:00.769Z,101001.56
2024-05-09T16:20:37.322Z,101009.56
2024-05-09T16:23:09.006Z,101002.41
2024-05-09T16:25:37.299Z,101013.28
2024-05-09T16:28:09.049Z,101002.41
2024-05-09T16:30:40.019Z,100997.97
2024-05-09T16:33:08.718Z,100998.84
2024-05-09T16:35:37.773Z,100999.97
2024-05-09T16:38:06.072Z,100986.50
2024-05-09T16:40:38.363Z,100998.69
2024-05-09T16:43:10.009Z,100999.91
2024-05-09T16:45:39.813Z,101003.63
2024-05-09T16:48:08.679Z,100987.47
2024-05-09T16:50:36.799Z,100988.44
2024-05-09T16:53:05.986Z,100986.47
2024-05-09T16:55:35.018Z,100995.59
2024-05-09T16:58:03.435Z,100987.59
2024-05-09T17:00:39.449Z,100988.44
2024-05-09T17:03:12.725Z,100986.81
2024-05-09T17:05:41.510Z,100988.31
2024-05-09T17:08:09.119Z,100989.25
2024-05-09T17:10:36.858Z,100986.69
2024-05-09T17:13:06.782Z,100992.22
2024-05-09T17:15:37.072Z,100990.59
2024-05-09T17:18:06.563Z,100989.50
2024-05-09T17:20:36.718Z,100981.50
2024-05-09T17:23:13.282Z,100986.03
2024-05-09T17:25:42.057Z,100991.72
2024-05-09T17:28:10.470Z,100993.44
2024-05-09T17:30:40.106Z,100987.28
2024-05-09T17:33:10.213Z,100989.56
2024-05-09T17:35:38.678Z,100985.34
2024-05-09T17:38:06.858Z,100983.97
2024-05-09T17:40:36.974Z,100990.38
2024-05-09T17:43:08.687Z,100978.78
2024-05-09T17:45:39.140Z,100979.38
2024-05-09T17:48:07.951Z,100982.72
2024-05-09T17:50:37.338Z,100983.69
2024-05-09T17:53:06.613Z,100986.50
2024-05-09T17:55:34.820Z,100985.66
2024-05-09T17:58:03.039Z,100985.78
2024-05-09T18:00:37.693Z,100988.63
2024-05-09T18:03:10.707Z,100991.19
2024-05-09T18:05:38.559Z,100993.16
2024-05-09T18:08:07.644Z,100975.50
2024-05-09T18:10:38.552Z,100990.16
2024-05-09T18:13:12.053Z,100987.09
2024-05-09T18:15:40.252Z,100991.16
2024-05-09T18:18:08.951Z,100990.38
2024-05-09T18:20:42.920Z,100983.44
2024-05-09T18:23:17.945Z,100985.44
2024-05-09T18:25:47.247Z,100981.22
2024-05-09T18:28:16.726Z,100992.19
2024-05-09T18:30:44.579Z,100988.81
2024-05-09T18:33:12.419Z,100991.00
2024-05-09T18:35:43.408Z,100994.59
2024-05-09T18:38:10.922Z,100997.88
2024-05-09T18:40:39.722Z,100998.09
2024-05-09T18:43:09.190Z,100991.94
2024-05-09T18:45:38.218Z,100990.38
2024-05-09T18:48:08.344Z,100992.31
2024-05-09T18:50:39.475Z,100985.00
2024-05-09T18:53:11.045Z,100994.75
2024-05-09T18:55:39.329Z,101006.25
2024-05-09T18:58:06.898Z,101008.19
2024-05-09T19:00:37.875Z,101000.09
2024-05-09T19:03:12.782Z,101007.47
2024-05-09T19:05:45.771Z,100994.38
2024-05-09T19:08:15.056Z,100999.66
2024-05-09T19:10:42.782Z,101008.63
2024-05-09T19:13:12.764Z,101012.38
2024-05-09T19:15:42.787Z,101012.47
2024-05-09T19:18:15.499Z,101016.00
2024-05-09T19:20:44.085Z,101020.31
2024-05-09T19:23:11.856Z,101020.09
2024-05-09T19:25:39.166Z,101026.34
2024-05-09T19:28:06.906Z,101020.09
2024-05-09T19:30:39.785Z,101030.34
2024-05-09T19:33:12.391Z,101020.31
2024-05-09T19:35:40.611Z,101026.97
2024-05-09T19:38:08.127Z,101028.44
2024-05-09T19:40:36.254Z,101033.03
2024-05-09T19:43:05.666Z,101021.78
2024-05-09T19:45:36.297Z,101022.06
2024-05-09T19:48:05.169Z,101023.31
2024-05-09T19:50:40.955Z,101028.22
2024-05-09T19:53:12.350Z,101021.75
2024-05-09T19:55:43.360Z,101031.88
2024-05-09T19:58:11.898Z,101021.16
2024-05-09T20:00:42.252Z,101023.75
2024-05-09T20:03:15.514Z,101032.22
2024-05-09T20:05:46.596Z,101020.94
2024-05-09T20:08:14.511Z,101026.78
2024-05-09T20:10:41.788Z,101030.69
2024-05-09T20:13:09.308Z,101033.66
2024-05-09T20:15:37.822Z,101029.06
2024-05-09T20:18:06.458Z,101030.31
2024-05-09T20:20:39.357Z,101034.25
2024-05-09T20:23:13.282Z,101032.00
2024-05-09T20:25:41.858Z,101036.81
2024-05-09T20:28:09.811Z,101032.09
2024-05-09T20:30:37.313Z,101042.78
2024-05-09T20:33:07.793Z,101033.41
2024-05-09T20:35:36.313Z,101036.63
2024-05-09T20:38:04.414Z,101042.38
2024-05-09T20:40:36.249Z,101047.09
2024-05-09T20:43:08.137Z,101042.00
2024-05-09T20:45:36.099Z,101040.41
2024-05-09T20:48:04.202Z,101043.38
2024-05-09T20:50:38.458Z,101041.03
2024-05-09T20:53:13.966Z,101032.50
2024-05-09T20:55:43.721Z,101036.44
2024-05-09T20:58:11.723Z,101039.25
2024-05-09T21:00:42.844Z,101030.63
2024-05-09T21:03:14.930Z,101036.88
2024-05-09T21:05:43.673Z,101029.16
2024-05-09T21:08:11.093Z,101029.84
2024-05-09T21:10:38.490Z,101032.38
2024-05-09T21:13:06.720Z,101043.47
2024-05-09T21:15:35.336Z,101034.94
2024-05-09T21:18:03.173Z,101028.16
2024-05-09T21:20:33.281Z,101036.53
2024-05-09T21:23:04.138Z,101035.91
2024-05-09T21:25:31.918Z,101030.16
2024-05-09T21:28:00.362Z,101033.66
2024-05-09T21:30:37.500Z,101035.81
2024-05-09T21:33:10.615Z,101039.63
2024-05-09T21:35:39.647Z,101042.63
2024-05-09T21:38:07.537Z,101034.91
2024-05-09T21:40:36.580Z,101028.25
2024-05-09T21:43:06.618Z,101028.97
2024-05-09T21:45:34.690Z,101032.78
2024-05-09T21:48:06.421Z,101027.44
2024-05-09T21:50:40.193Z,101024.13
2024-05-09T21:53:13.596Z,101020.75
2024-05-09T21:55:42.168Z,101021.84
2024-05-09T21:58:10.510Z,101008.88
2024-05-09T22:00:42.807Z,101023.09
2024-05-09T22:03:11.713Z,101021.34
2024-05-09T22:05:42.352Z,101025.88
2024-05-09T22:08:10.924Z,101019.72
2024-05-09T22:10:38.421Z,101013.53
2024-05-09T22:13:06.767Z,101019.06
2024-05-09T22:15:40.114Z,101018.91
2024-05-09T22:18:09.751Z,101020.00
2024-05-09T22:20:43.920Z,101018.34
2024-05-09T22:23:12.295Z,101023.94
2024-05-09T22:25:39.545Z,101026.09
2024-05-09T22:28:07.415Z,101034.19
2024-05-09T22:30:38.395Z,101027.53
2024-05-09T22:33:09.546Z,101027.69
2024-05-09T22:35:38.312Z,101022.66
2024-05-09T22:38:05.872Z,101026.44
2024-05-09T22:40:42.740Z,101017.25
2024-05-09T22:43:23.480Z,101022.75
2024-05-09T22:45:54.362Z,101016.09
2024-05-09T22:48:22.244Z,101026.91
2024-05-09T22:50:49.480Z,101026.09
2024-05-09T22:53:16.869Z,101020.19
2024-05-09T22:55:44.099Z,101027.38
2024-05-09T22:58:11.338Z,101012.63
2024-05-09T23:00:38.732Z,101023.25
2024-05-09T23:03:06.313Z,101022.53
2024-05-09T23:05:33.647Z,101029.72
2024-05-09T23:08:02.217Z,101031.59
2024-05-09T23:10:35.656Z,101022.09
2024-05-09T23:13:06.941Z,101023.69
2024-05-09T23:15:37.011Z,101030.94
2024-05-09T23:18:04.920Z,101025.84
2024-05-09T23:20:37.499Z,101018.75
2024-05-09T23:23:08.519Z,101028.59
2024-05-09T23:25:37.044Z,101026.94
2024-05-09T23:28:04.798Z,101028.81
2024-05-09T23:30:37.909Z,101028.81
2024-05-09T23:33:10.089Z,101024.41
2024-05-09T23:35:38.154Z,101028.81
2024-05-09T23:38:05.556Z,101023.53
2024-05-09T23:43:03.258Z,101018.56
2024-05-09T23:45:30.935Z,101009.75
2024-05-09T23:47:58.106Z,101014.47
2024-05-09T23:50:33.562Z,101024.97
2024-05-09T23:53:04.063Z,101017.22
2024-05-09T23:55:32.323Z,101022.78
2024-05-09T23:58:00.221Z,101023.19
